Angola, Louisiana
Current Conditions -  °F | °C
As of 9:15 PM on Monday 26 Jan 2015 (Local Time) from KHZR Reporting Station
Clear Clear  
Wind Chill: 43°   Ceiling: Unl
Heat Index: 43°   Visibility: 10mi
Dew Point: 37°   Wind: 3mph
Humidity: 79%   Direction: 220°SW
Pressure: 30.1"   Gusts: NA
Location:  30.95°N, 91.57°W
Report Text: KHZR 270315Z AUTO 22003KT 10SM CLR 06/03 A3010 RMK AO2 T00630029
Loading
Personal Weather Stations






























Interactive Weather Map New forecast layout! Learn more

10-Day Weather Forecast

Advertisements
Track Severe Weather on mobile